sensor_id;sensor_type;location;lat;lon;timestamp;pressure;altitude;pressure_sealevel;temperature;humidity
42633;BME280;28261;53.304;-6.284;2022-07-23T00:01:07;101199.66;;;16.80;60.37
42633;BME280;28261;53.304;-6.284;2022-07-23T00:03:11;101199.66;;;16.80;60.54
42633;BME280;28261;53.304;-6.284;2022-07-23T00:05:15;101194.16;;;16.82;60.27
42633;BME280;28261;53.304;-6.284;2022-07-23T00:07:20;101191.34;;;16.83;60.84
42633;BME280;28261;53.304;-6.284;2022-07-23T00:09:23;101186.72;;;16.85;60.34
42633;BME280;28261;53.304;-6.284;2022-07-23T00:11:29;101184.72;;;16.87;60.60
42633;BME280;28261;53.304;-6.284;2022-07-23T00:13:35;101184.50;;;16.90;60.83
42633;BME280;28261;53.304;-6.284;2022-07-23T00:15:39;101183.53;;;16.91;61.10
42633;BME280;28261;53.304;-6.284;2022-07-23T00:17:43;101179.00;;;16.92;60.99
42633;BME280;28261;53.304;-6.284;2022-07-23T00:19:48;101188.59;;;16.95;61.17
42633;BME280;28261;53.304;-6.284;2022-07-23T00:21:52;101189.34;;;16.97;61.92
42633;BME280;28261;53.304;-6.284;2022-07-23T00:23:55;101175.81;;;16.98;62.62
42633;BME280;28261;53.304;-6.284;2022-07-23T00:25:59;101183.00;;;16.98;63.91
42633;BME280;28261;53.304;-6.284;2022-07-23T00:28:03;101186.50;;;16.98;64.17
42633;BME280;28261;53.304;-6.284;2022-07-23T00:30:09;101182.88;;;16.99;64.96
42633;BME280;28261;53.304;-6.284;2022-07-23T00:32:13;101185.53;;;16.99;65.30
42633;BME280;28261;53.304;-6.284;2022-07-23T00:34:36;101178.63;;;16.97;65.65
42633;BME280;28261;53.304;-6.284;2022-07-23T00:36:40;101184.25;;;16.94;66.11
42633;BME280;28261;53.304;-6.284;2022-07-23T00:38:43;101180.56;;;16.95;66.55
42633;BME280;28261;53.304;-6.284;2022-07-23T00:40:47;101181.56;;;16.94;67.39
42633;BME280;28261;53.304;-6.284;2022-07-23T00:42:51;101178.91;;;16.94;68.37
42633;BME280;28261;53.304;-6.284;2022-07-23T00:44:54;101180.69;;;16.93;68.70
42633;BME280;28261;53.304;-6.284;2022-07-23T00:47:00;101179.13;;;16.90;70.31
42633;BME280;28261;53.304;-6.284;2022-07-23T00:49:04;101178.41;;;16.88;70.16
42633;BME280;28261;53.304;-6.284;2022-07-23T00:51:07;101176.38;;;16.81;70.81
42633;BME280;28261;53.304;-6.284;2022-07-23T00:53:11;101167.31;;;16.72;71.70
42633;BME280;28261;53.304;-6.284;2022-07-23T00:55:15;101170.31;;;16.57;73.63
42633;BME280;28261;53.304;-6.284;2022-07-23T00:57:19;101153.41;;;16.36;75.12
42633;BME280;28261;53.304;-6.284;2022-07-23T00:59:29;101161.91;;;16.20;76.80
42633;BME280;28261;53.304;-6.284;2022-07-23T01:01:33;101165.47;;;16.09;77.61
42633;BME280;28261;53.304;-6.284;2022-07-23T01:03:38;101158.34;;;15.98;78.76
42633;BME280;28261;53.304;-6.284;2022-07-23T01:05:41;101149.25;;;15.89;79.49
42633;BME280;28261;53.304;-6.284;2022-07-23T01:07:45;101145.28;;;15.84;80.62
42633;BME280;28261;53.304;-6.284;2022-07-23T01:09:54;101146.59;;;15.78;81.20
42633;BME280;28261;53.304;-6.284;2022-07-23T01:11:58;101144.88;;;15.77;81.35
42633;BME280;28261;53.304;-6.284;2022-07-23T01:14:11;101142.72;;;15.82;81.28
42633;BME280;28261;53.304;-6.284;2022-07-23T01:16:15;101141.97;;;15.92;81.61
42633;BME280;28261;53.304;-6.284;2022-07-23T01:18:18;101144.97;;;15.98;81.71
42633;BME280;28261;53.304;-6.284;2022-07-23T01:20:23;101143.63;;;16.04;81.91
42633;BME280;28261;53.304;-6.284;2022-07-23T01:22:29;101148.56;;;16.08;82.40
42633;BME280;28261;53.304;-6.284;2022-07-23T01:24:33;101139.31;;;16.13;82.05
42633;BME280;28261;53.304;-6.284;2022-07-23T01:26:42;101142.72;;;16.15;83.54
42633;BME280;28261;53.304;-6.284;2022-07-23T01:28:46;101135.16;;;16.20;82.54
42633;BME280;28261;53.304;-6.284;2022-07-23T01:30:49;101132.34;;;16.21;83.29
42633;BME280;28261;53.304;-6.284;2022-07-23T01:32:53;101127.72;;;16.23;83.17
42633;BME280;28261;53.304;-6.284;2022-07-23T01:34:57;101132.09;;;16.24;82.83
42633;BME280;28261;53.304;-6.284;2022-07-23T01:37:00;101129.69;;;16.21;83.29
42633;BME280;28261;53.304;-6.284;2022-07-23T01:39:07;101121.38;;;16.24;84.63
42633;BME280;28261;53.304;-6.284;2022-07-23T01:41:11;101125.03;;;16.23;85.27
42633;BME280;28261;53.304;-6.284;2022-07-23T01:43:16;101118.00;;;16.22;84.40
42633;BME280;28261;53.304;-6.284;2022-07-23T01:45:20;101117.69;;;16.16;84.38
42633;BME280;28261;53.304;-6.284;2022-07-23T01:47:26;101119.28;;;16.07;85.20
42633;BME280;28261;53.304;-6.284;2022-07-23T01:49:30;101116.88;;;16.04;85.21
42633;BME280;28261;53.304;-6.284;2022-07-23T01:51:34;101119.56;;;16.04;85.26
42633;BME280;28261;53.304;-6.284;2022-07-23T01:53:42;101114.47;;;16.01;85.46
42633;BME280;28261;53.304;-6.284;2022-07-23T01:55:47;101108.03;;;15.92;85.25
42633;BME280;28261;53.304;-6.284;2022-07-23T01:57:51;101119.13;;;15.87;85.88
42633;BME280;28261;53.304;-6.284;2022-07-23T01:59:57;101113.78;;;15.87;85.86
42633;BME280;28261;53.304;-6.284;2022-07-23T02:02:01;101108.19;;;15.90;85.38
42633;BME280;28261;53.304;-6.284;2022-07-23T02:04:05;101094.69;;;15.92;85.24
42633;BME280;28261;53.304;-6.284;2022-07-23T02:06:09;101094.53;;;15.94;84.70
42633;BME280;28261;53.304;-6.284;2022-07-23T02:08:13;101095.78;;;15.89;84.55
42633;BME280;28261;53.304;-6.284;2022-07-23T02:10:17;101079.16;;;15.86;84.07
42633;BME280;28261;53.304;-6.284;2022-07-23T02:12:22;101086.72;;;15.81;83.76
42633;BME280;28261;53.304;-6.284;2022-07-23T02:14:26;101095.09;;;15.76;83.72
42633;BME280;28261;53.304;-6.284;2022-07-23T02:16:29;101089.16;;;15.72;82.91
42633;BME280;28261;53.304;-6.284;2022-07-23T02:18:36;101085.88;;;15.69;82.36
42633;BME280;28261;53.304;-6.284;2022-07-23T02:20:40;101084.19;;;15.68;82.31
42633;BME280;28261;53.304;-6.284;2022-07-23T02:22:43;101085.75;;;15.70;82.28
42633;BME280;28261;53.304;-6.284;2022-07-23T02:24:47;101073.25;;;15.71;81.83
42633;BME280;28261;53.304;-6.284;2022-07-23T02:26:51;101059.88;;;15.71;81.59
42633;BME280;28261;53.304;-6.284;2022-07-23T02:28:55;101058.03;;;15.71;81.91
42633;BME280;28261;53.304;-6.284;2022-07-23T02:30:59;101061.81;;;15.69;81.75
42633;BME280;28261;53.304;-6.284;2022-07-23T02:33:03;101054.53;;;15.71;81.70
42633;BME280;28261;53.304;-6.284;2022-07-23T02:35:07;101052.84;;;15.70;81.35
42633;BME280;28261;53.304;-6.284;2022-07-23T02:37:11;101048.31;;;15.70;81.28
42633;BME280;28261;53.304;-6.284;2022-07-23T02:39:15;101045.56;;;15.72;81.33
42633;BME280;28261;53.304;-6.284;2022-07-23T02:41:19;101047.00;;;15.76;81.49
42633;BME280;28261;53.304;-6.284;2022-07-23T02:43:22;101049.03;;;15.84;81.50
42633;BME280;28261;53.304;-6.284;2022-07-23T02:45:27;101045.72;;;15.92;81.64
42633;BME280;28261;53.304;-6.284;2022-07-23T02:47:32;101049.56;;;15.99;81.20
42633;BME280;28261;53.304;-6.284;2022-07-23T02:49:36;101043.84;;;16.03;80.88
42633;BME280;28261;53.304;-6.284;2022-07-23T02:51:40;101048.06;;;16.06;81.63
42633;BME280;28261;53.304;-6.284;2022-07-23T02:53:46;101041.88;;;16.05;80.96
42633;BME280;28261;53.304;-6.284;2022-07-23T02:55:51;101036.91;;;16.01;81.38
42633;BME280;28261;53.304;-6.284;2022-07-23T02:57:56;101034.38;;;15.99;81.55
42633;BME280;28261;53.304;-6.284;2022-07-23T03:00:00;101035.50;;;15.97;81.34
42633;BME280;28261;53.304;-6.284;2022-07-23T03:02:05;101027.34;;;15.98;81.24
42633;BME280;28261;53.304;-6.284;2022-07-23T03:04:09;101028.91;;;16.01;81.04
42633;BME280;28261;53.304;-6.284;2022-07-23T03:06:13;101031.56;;;16.01;80.95
42633;BME280;28261;53.304;-6.284;2022-07-23T03:08:17;101016.78;;;15.97;81.12
42633;BME280;28261;53.304;-6.284;2022-07-23T03:10:25;101027.47;;;15.97;80.97
42633;BME280;28261;53.304;-6.284;2022-07-23T03:12:28;101026.72;;;15.95;81.32
42633;BME280;28261;53.304;-6.284;2022-07-23T03:14:32;101019.81;;;15.92;81.68
42633;BME280;28261;53.304;-6.284;2022-07-23T03:16:36;101017.53;;;15.87;82.17
42633;BME280;28261;53.304;-6.284;2022-07-23T03:18:41;101022.28;;;15.84;82.51
42633;BME280;28261;53.304;-6.284;2022-07-23T03:20:44;101019.50;;;15.85;82.92
42633;BME280;28261;53.304;-6.284;2022-07-23T03:22:48;101019.75;;;15.82;83.46
42633;BME280;28261;53.304;-6.284;2022-07-23T03:24:52;101011.88;;;15.81;83.49
42633;BME280;28261;53.304;-6.284;2022-07-23T03:27:01;101006.38;;;15.82;83.61
42633;BME280;28261;53.304;-6.284;2022-07-23T03:29:05;101010.75;;;15.83;83.77
42633;BME280;28261;53.304;-6.284;2022-07-23T03:31:08;101007.97;;;15.85;83.49
42633;BME280;28261;53.304;-6.284;2022-07-23T03:33:14;101013.91;;;15.88;83.54
42633;BME280;28261;53.304;-6.284;2022-07-23T03:35:19;101009.00;;;15.94;84.04
42633;BME280;28261;53.304;-6.284;2022-07-23T03:37:37;101000.72;;;15.97;83.98
42633;BME280;28261;53.304;-6.284;2022-07-23T03:39:40;100990.72;;;15.99;83.68
42633;BME280;28261;53.304;-6.284;2022-07-23T03:41:44;100995.94;;;16.00;83.56
42633;BME280;28261;53.304;-6.284;2022-07-23T03:43:47;100990.34;;;16.03;83.74
42633;BME280;28261;53.304;-6.284;2022-07-23T03:45:51;100985.56;;;16.07;83.69
42633;BME280;28261;53.304;-6.284;2022-07-23T03:47:55;100985.31;;;16.10;83.94
42633;BME280;28261;53.304;-6.284;2022-07-23T03:49:58;100969.97;;;16.12;83.65
42633;BME280;28261;53.304;-6.284;2022-07-23T03:52:04;100970.69;;;16.14;83.96
42633;BME280;28261;53.304;-6.284;2022-07-23T03:54:07;100973.81;;;16.19;83.95
42633;BME280;28261;53.304;-6.284;2022-07-23T03:56:11;100975.50;;;16.20;85.05
42633;BME280;28261;53.304;-6.284;2022-07-23T03:58:14;100980.59;;;16.23;85.53
42633;BME280;28261;53.304;-6.284;2022-07-23T04:00:18;100967.22;;;16.23;86.34
42633;BME280;28261;53.304;-6.284;2022-07-23T04:02:24;100960.88;;;16.24;85.89
42633;BME280;28261;53.304;-6.284;2022-07-23T04:04:29;100954.69;;;16.24;86.24
42633;BME280;28261;53.304;-6.284;2022-07-23T04:06:33;100956.50;;;16.23;86.94
42633;BME280;28261;53.304;-6.284;2022-07-23T04:08:38;100947.78;;;16.21;87.61
42633;BME280;28261;53.304;-6.284;2022-07-23T04:10:41;100946.09;;;16.20;87.55
42633;BME280;28261;53.304;-6.284;2022-07-23T04:12:46;100954.09;;;16.20;88.40
42633;BME280;28261;53.304;-6.284;2022-07-23T04:14:50;100948.75;;;16.20;88.08
42633;BME280;28261;53.304;-6.284;2022-07-23T04:16:53;100946.81;;;16.22;87.79
42633;BME280;28261;53.304;-6.284;2022-07-23T04:18:57;100938.50;;;16.26;87.73
42633;BME280;28261;53.304;-6.284;2022-07-23T04:21:06;100947.09;;;16.29;87.80
42633;BME280;28261;53.304;-6.284;2022-07-23T04:23:11;100945.97;;;16.32;87.72
42633;BME280;28261;53.304;-6.284;2022-07-23T04:25:17;100937.81;;;16.33;87.46
42633;BME280;28261;53.304;-6.284;2022-07-23T04:27:20;100941.88;;;16.28;88.47
42633;BME280;28261;53.304;-6.284;2022-07-23T04:29:24;100935.56;;;16.29;89.03
42633;BME280;28261;53.304;-6.284;2022-07-23T04:31:28;100945.16;;;16.31;89.60
42633;BME280;28261;53.304;-6.284;2022-07-23T04:33:38;100938.81;;;16.32;89.25
42633;BME280;28261;53.304;-6.284;2022-07-23T04:35:42;100945.28;;;16.30;89.18
42633;BME280;28261;53.304;-6.284;2022-07-23T04:37:49;100936.53;;;16.28;90.62
42633;BME280;28261;53.304;-6.284;2022-07-23T04:39:53;100928.50;;;16.28;90.11
42633;BME280;28261;53.304;-6.284;2022-07-23T04:42:00;100929.50;;;16.27;90.53
42633;BME280;28261;53.304;-6.284;2022-07-23T04:44:06;100927.69;;;16.27;90.82
42633;BME280;28261;53.304;-6.284;2022-07-23T04:46:10;100936.28;;;16.31;90.61
42633;BME280;28261;53.304;-6.284;2022-07-23T04:48:20;100934.44;;;16.31;91.08
42633;BME280;28261;53.304;-6.284;2022-07-23T04:50:31;100935.56;;;16.29;91.14
42633;BME280;28261;53.304;-6.284;2022-07-23T04:52:35;100933.03;;;16.27;91.71
42633;BME280;28261;53.304;-6.284;2022-07-23T04:54:38;100932.88;;;16.29;91.44
42633;BME280;28261;53.304;-6.284;2022-07-23T04:56:42;100928.25;;;16.31;91.25
42633;BME280;28261;53.304;-6.284;2022-07-23T04:58:47;100930.66;;;16.34;91.30
42633;BME280;28261;53.304;-6.284;2022-07-23T05:00:51;100930.38;;;16.37;90.90
42633;BME280;28261;53.304;-6.284;2022-07-23T05:02:55;100929.41;;;16.38;90.75
42633;BME280;28261;53.304;-6.284;2022-07-23T05:04:58;100929.41;;;16.38;90.59
42633;BME280;28261;53.304;-6.284;2022-07-23T05:07:02;100928.28;;;16.40;90.37
42633;BME280;28261;53.304;-6.284;2022-07-23T05:09:07;100925.47;;;16.42;90.20
42633;BME280;28261;53.304;-6.284;2022-07-23T05:11:10;100924.34;;;16.45;90.26
42633;BME280;28261;53.304;-6.284;2022-07-23T05:13:14;100923.34;;;16.46;90.49
42633;BME280;28261;53.304;-6.284;2022-07-23T05:15:20;100921.25;;;16.49;90.21
42633;BME280;28261;53.304;-6.284;2022-07-23T05:17:23;100925.50;;;16.52;90.39
42633;BME280;28261;53.304;-6.284;2022-07-23T05:19:28;100924.53;;;16.53;90.25
42633;BME280;28261;53.304;-6.284;2022-07-23T05:21:31;100928.03;;;16.53;90.48
42633;BME280;28261;53.304;-6.284;2022-07-23T05:23:35;100928.75;;;16.55;90.51
42633;BME280;28261;53.304;-6.284;2022-07-23T05:25:39;100925.50;;;16.52;90.37
42633;BME280;28261;53.304;-6.284;2022-07-23T05:27:44;100931.28;;;16.47;91.42
42633;BME280;28261;53.304;-6.284;2022-07-23T05:29:48;100925.91;;;16.47;91.52
42633;BME280;28261;53.304;-6.284;2022-07-23T05:31:54;100922.97;;;16.50;91.53
42633;BME280;28261;53.304;-6.284;2022-07-23T05:33:57;100918.31;;;16.52;91.45
42633;BME280;28261;53.304;-6.284;2022-07-23T05:36:01;100925.22;;;16.55;91.53
42633;BME280;28261;53.304;-6.284;2022-07-23T05:38:07;100917.03;;;16.56;91.04
42633;BME280;28261;53.304;-6.284;2022-07-23T05:40:11;100919.72;;;16.56;91.40
42633;BME280;28261;53.304;-6.284;2022-07-23T05:42:15;100922.28;;;16.58;91.16
42633;BME280;28261;53.304;-6.284;2022-07-23T05:44:18;100918.75;;;16.57;91.35
42633;BME280;28261;53.304;-6.284;2022-07-23T05:46:22;100911.84;;;16.55;91.05
42633;BME280;28261;53.304;-6.284;2022-07-23T05:48:32;100906.19;;;16.48;91.44
42633;BME280;28261;53.304;-6.284;2022-07-23T05:50:41;100900.53;;;16.41;92.86
42633;BME280;28261;53.304;-6.284;2022-07-23T05:52:55;100904.47;;;16.37;93.90
42633;BME280;28261;53.304;-6.284;2022-07-23T05:55:12;100895.28;;;16.30;94.15
42633;BME280;28261;53.304;-6.284;2022-07-23T05:57:16;100899.09;;;16.28;94.05
42633;BME280;28261;53.304;-6.284;2022-07-23T05:59:26;100896.41;;;16.28;94.38
42633;BME280;28261;53.304;-6.284;2022-07-23T06:01:29;100900.66;;;16.30;94.68
42633;BME280;28261;53.304;-6.284;2022-07-23T06:03:43;100889.94;;;16.30;94.86
42633;BME280;28261;53.304;-6.284;2022-07-23T06:05:47;100891.06;;;16.28;94.87
42633;BME280;28261;53.304;-6.284;2022-07-23T06:07:51;100889.38;;;16.27;95.43
42633;BME280;28261;53.304;-6.284;2022-07-23T06:09:58;100883.31;;;16.24;95.00
42633;BME280;28261;53.304;-6.284;2022-07-23T06:12:01;100884.84;;;16.17;95.25
42633;BME280;28261;53.304;-6.284;2022-07-23T06:14:05;100894.97;;;16.14;95.71
42633;BME280;28261;53.304;-6.284;2022-07-23T06:16:26;100886.50;;;16.08;95.78
42633;BME280;28261;53.304;-6.284;2022-07-23T06:18:29;100883.50;;;16.02;96.25
42633;BME280;28261;53.304;-6.284;2022-07-23T06:20:34;100885.03;;;15.95;96.65
42633;BME280;28261;53.304;-6.284;2022-07-23T06:22:38;100887.25;;;15.89;97.40
42633;BME280;28261;53.304;-6.284;2022-07-23T06:24:42;100889.50;;;15.84;98.96
42633;BME280;28261;53.304;-6.284;2022-07-23T06:26:45;100883.56;;;15.81;98.94
42633;BME280;28261;53.304;-6.284;2022-07-23T06:28:49;100874.78;;;15.79;98.26
42633;BME280;28261;53.304;-6.284;2022-07-23T06:30:53;100876.75;;;15.77;98.90
42633;BME280;28261;53.304;-6.284;2022-07-23T06:32:58;100881.00;;;15.79;99.03
42633;BME280;28261;53.304;-6.284;2022-07-23T06:35:04;100875.53;;;15.81;98.25
42633;BME280;28261;53.304;-6.284;2022-07-23T06:37:09;100873.84;;;15.80;98.40
42633;BME280;28261;53.304;-6.284;2022-07-23T06:39:14;100874.72;;;15.80;99.34
42633;BME280;28261;53.304;-6.284;2022-07-23T06:41:22;100874.56;;;15.82;99.40
42633;BME280;28261;53.304;-6.284;2022-07-23T06:43:26;100868.13;;;15.84;100.00
42633;BME280;28261;53.304;-6.284;2022-07-23T06:45:30;100864.44;;;15.85;99.82
42633;BME280;28261;53.304;-6.284;2022-07-23T06:47:33;100860.78;;;15.86;99.70
42633;BME280;28261;53.304;-6.284;2022-07-23T06:49:37;100869.78;;;15.85;100.00
42633;BME280;28261;53.304;-6.284;2022-07-23T06:51:43;100864.72;;;15.82;100.00
42633;BME280;28261;53.304;-6.284;2022-07-23T06:53:47;100866.69;;;15.80;100.00
42633;BME280;28261;53.304;-6.284;2022-07-23T06:55:51;100861.56;;;15.77;100.00
42633;BME280;28261;53.304;-6.284;2022-07-23T06:57:54;100861.00;;;15.73;100.00
42633;BME280;28261;53.304;-6.284;2022-07-23T06:59:58;100853.13;;;15.72;100.00
42633;BME280;28261;53.304;-6.284;2022-07-23T07:02:02;100853.34;;;15.69;100.00
42633;BME280;28261;53.304;-6.284;2022-07-23T07:04:06;100854.38;;;15.68;100.00
42633;BME280;28261;53.304;-6.284;2022-07-23T07:06:10;100855.34;;;15.67;100.00
42633;BME280;28261;53.304;-6.284;2022-07-23T07:08:14;100851.78;;;15.66;100.00
42633;BME280;28261;53.304;-6.284;2022-07-23T07:10:20;100850.81;;;15.67;100.00
42633;BME280;28261;53.304;-6.284;2022-07-23T07:12:24;100841.00;;;15.68;100.00
42633;BME280;28261;53.304;-6.284;2022-07-23T07:14:27;100843.66;;;15.68;100.00
42633;BME280;28261;53.304;-6.284;2022-07-23T07:16:31;100844.38;;;15.70;100.00
42633;BME280;28261;53.304;-6.284;2022-07-23T07:18:35;100828.06;;;15.73;100.00
42633;BME280;28261;53.304;-6.284;2022-07-23T07:20:39;100825.13;;;15.76;100.00
42633;BME280;28261;53.304;-6.284;2022-07-23T07:22:43;100822.91;;;15.81;100.00
42633;BME280;28261;53.304;-6.284;2022-07-23T07:24:47;100819.72;;;15.87;100.00
42633;BME280;28261;53.304;-6.284;2022-07-23T07:26:52;100823.53;;;15.95;100.00
42633;BME280;28261;53.304;-6.284;2022-07-23T07:28:56;100819.59;;;15.99;100.00
42633;BME280;28261;53.304;-6.284;2022-07-23T07:31:00;100811.31;;;16.02;100.00
42633;BME280;28261;53.304;-6.284;2022-07-23T07:33:04;100814.72;;;16.04;100.00
42633;BME280;28261;53.304;-6.284;2022-07-23T07:35:09;100814.41;;;16.07;100.00
42633;BME280;28261;53.304;-6.284;2022-07-23T07:37:13;100810.50;;;16.11;100.00
42633;BME280;28261;53.304;-6.284;2022-07-23T07:39:18;100802.91;;;16.16;100.00
42633;BME280;28261;53.304;-6.284;2022-07-23T07:41:22;100801.66;;;16.20;100.00
42633;BME280;28261;53.304;-6.284;2022-07-23T07:43:28;100792.22;;;16.26;100.00
42633;BME280;28261;53.304;-6.284;2022-07-23T07:45:32;100803.22;;;16.33;100.00
42633;BME280;28261;53.304;-6.284;2022-07-23T07:47:36;100797.88;;;16.42;100.00
42633;BME280;28261;53.304;-6.284;2022-07-23T07:49:41;100787.47;;;16.49;100.00
42633;BME280;28261;53.304;-6.284;2022-07-23T07:51:45;100782.25;;;16.57;100.00
42633;BME280;28261;53.304;-6.284;2022-07-23T07:53:50;100786.06;;;16.65;100.00
42633;BME280;28261;53.304;-6.284;2022-07-23T07:55:54;100780.84;;;16.73;100.00
42633;BME280;28261;53.304;-6.284;2022-07-23T07:57:58;100788.03;;;16.82;100.00
42633;BME280;28261;53.304;-6.284;2022-07-23T08:00:06;100783.09;;;16.87;100.00
42633;BME280;28261;53.304;-6.284;2022-07-23T08:02:13;100784.94;;;16.97;100.00
42633;BME280;28261;53.304;-6.284;2022-07-23T08:04:17;100793.41;;;17.02;100.00
42633;BME280;28261;53.304;-6.284;2022-07-23T08:06:21;100782.41;;;17.05;100.00
42633;BME280;28261;53.304;-6.284;2022-07-23T08:08:25;100779.41;;;17.08;100.00
42633;BME280;28261;53.304;-6.284;2022-07-23T08:10:28;100782.53;;;17.03;100.00
42633;BME280;28261;53.304;-6.284;2022-07-23T08:12:41;100775.34;;;17.04;100.00
42633;BME280;28261;53.304;-6.284;2022-07-23T08:14:46;100771.38;;;17.08;100.00
42633;BME280;28261;53.304;-6.284;2022-07-23T08:16:52;100771.25;;;17.09;100.00
42633;BME280;28261;53.304;-6.284;2022-07-23T08:19:16;100770.81;;;17.14;100.00
42633;BME280;28261;53.304;-6.284;2022-07-23T08:21:20;100776.72;;;17.18;100.00
42633;BME280;28261;53.304;-6.284;2022-07-23T08:23:23;100776.97;;;17.24;100.00
42633;BME280;28261;53.304;-6.284;2022-07-23T08:25:33;100767.66;;;17.29;100.00
42633;BME280;28261;53.304;-6.284;2022-07-23T08:27:37;100762.72;;;17.34;100.00
42633;BME280;28261;53.304;-6.284;2022-07-23T08:29:41;100758.75;;;17.38;100.00
42633;BME280;28261;53.304;-6.284;2022-07-23T08:31:44;100759.75;;;17.37;100.00
42633;BME280;28261;53.304;-6.284;2022-07-23T08:33:50;100751.84;;;17.35;100.00
42633;BME280;28261;53.304;-6.284;2022-07-23T08:35:54;100745.34;;;17.38;100.00
42633;BME280;28261;53.304;-6.284;2022-07-23T08:37:59;100743.91;;;17.43;100.00
42633;BME280;28261;53.304;-6.284;2022-07-23T08:40:04;100741.50;;;17.50;100.00
42633;BME280;28261;53.304;-6.284;2022-07-23T08:42:08;100745.25;;;17.57;100.00
42633;BME280;28261;53.304;-6.284;2022-07-23T08:44:13;100741.28;;;17.62;100.00
42633;BME280;28261;53.304;-6.284;2022-07-23T08:46:20;100735.34;;;17.68;100.00
42633;BME280;28261;53.304;-6.284;2022-07-23T08:48:25;100737.41;;;17.74;100.00
42633;BME280;28261;53.304;-6.284;2022-07-23T08:50:33;100733.16;;;17.81;100.00
42633;BME280;28261;53.304;-6.284;2022-07-23T08:52:42;100726.19;;;17.88;99.93
42633;BME280;28261;53.304;-6.284;2022-07-23T08:54:46;100732.81;;;17.94;99.44
42633;BME280;28261;53.304;-6.284;2022-07-23T08:56:51;100729.31;;;17.93;98.84
42633;BME280;28261;53.304;-6.284;2022-07-23T08:58:55;100728.44;;;17.93;98.48
42633;BME280;28261;53.304;-6.284;2022-07-23T09:01:00;100722.38;;;17.91;98.65
42633;BME280;28261;53.304;-6.284;2022-07-23T09:03:04;100714.78;;;17.86;98.81
42633;BME280;28261;53.304;-6.284;2022-07-23T09:05:10;100714.69;;;17.78;99.43
42633;BME280;28261;53.304;-6.284;2022-07-23T09:07:16;100703.44;;;17.74;99.37
42633;BME280;28261;53.304;-6.284;2022-07-23T09:09:21;100703.59;;;17.73;99.58
42633;BME280;28261;53.304;-6.284;2022-07-23T09:11:25;100700.91;;;17.73;99.44
42633;BME280;28261;53.304;-6.284;2022-07-23T09:13:34;100697.22;;;17.74;98.92
42633;BME280;28261;53.304;-6.284;2022-07-23T09:15:48;100703.59;;;17.73;99.16
42633;BME280;28261;53.304;-6.284;2022-07-23T09:17:55;100711.63;;;17.73;99.37
42633;BME280;28261;53.304;-6.284;2022-07-23T09:20:08;100704.41;;;17.73;99.04
42633;BME280;28261;53.304;-6.284;2022-07-23T09:22:22;100698.06;;;17.74;99.06
42633;BME280;28261;53.304;-6.284;2022-07-23T09:24:29;100693.22;;;17.78;99.15
42633;BME280;28261;53.304;-6.284;2022-07-23T09:26:35;100687.59;;;17.81;98.86
42633;BME280;28261;53.304;-6.284;2022-07-23T09:28:50;100686.28;;;17.85;98.51
42633;BME280;28261;53.304;-6.284;2022-07-23T09:30:55;100702.22;;;17.87;98.40
42633;BME280;28261;53.304;-6.284;2022-07-23T09:33:08;100701.09;;;17.89;98.71
42633;BME280;28261;53.304;-6.284;2022-07-23T09:35:12;100683.97;;;17.90;99.13
42633;BME280;28261;53.304;-6.284;2022-07-23T09:37:17;100681.59;;;17.87;99.76
42633;BME280;28261;53.304;-6.284;2022-07-23T09:39:27;100686.66;;;17.90;100.00
42633;BME280;28261;53.304;-6.284;2022-07-23T09:41:41;100677.34;;;17.95;100.00
42633;BME280;28261;53.304;-6.284;2022-07-23T09:43:46;100676.03;;;17.99;100.00
42633;BME280;28261;53.304;-6.284;2022-07-23T09:45:51;100669.38;;;18.03;99.83
42633;BME280;28261;53.304;-6.284;2022-07-23T09:48:10;100664.25;;;18.09;99.52
42633;BME280;28261;53.304;-6.284;2022-07-23T09:50:14;100669.31;;;18.13;98.90
42633;BME280;28261;53.304;-6.284;2022-07-23T09:52:26;100669.56;;;18.19;98.75
42633;BME280;28261;53.304;-6.284;2022-07-23T09:54:38;100660.19;;;18.23;98.53
42633;BME280;28261;53.304;-6.284;2022-07-23T09:56:43;100656.03;;;18.29;98.48
42633;BME280;28261;53.304;-6.284;2022-07-23T09:58:50;100656.13;;;18.37;97.63
42633;BME280;28261;53.304;-6.284;2022-07-23T10:01:04;100654.69;;;18.51;97.42
42633;BME280;28261;53.304;-6.284;2022-07-23T10:03:09;100653.44;;;18.64;96.53
42633;BME280;28261;53.304;-6.284;2022-07-23T10:05:33;100663.91;;;18.75;95.75
42633;BME280;28261;53.304;-6.284;2022-07-23T10:08:14;100654.75;;;18.86;94.69
42633;BME280;28261;53.304;-6.284;2022-07-23T10:10:41;100655.00;;;18.92;93.40
42633;BME280;28261;53.304;-6.284;2022-07-23T10:13:13;100645.59;;;18.97;92.82
42633;BME280;28261;53.304;-6.284;2022-07-23T10:15:36;100649.69;;;19.09;92.54
42633;BME280;28261;53.304;-6.284;2022-07-23T10:17:40;100653.28;;;19.18;92.25
42633;BME280;28261;53.304;-6.284;2022-07-23T10:19:44;100641.53;;;19.27;91.41
42633;BME280;28261;53.304;-6.284;2022-07-23T10:21:53;100639.75;;;19.36;90.89
42633;BME280;28261;53.304;-6.284;2022-07-23T10:24:12;100625.81;;;19.40;90.36
42633;BME280;28261;53.304;-6.284;2022-07-23T10:26:26;100630.53;;;19.47;89.84
42633;BME280;28261;53.304;-6.284;2022-07-23T10:28:56;100625.00;;;19.48;89.87
42633;BME280;28261;53.304;-6.284;2022-07-23T10:31:13;100635.28;;;19.61;89.60
42633;BME280;28261;53.304;-6.284;2022-07-23T10:33:46;100629.91;;;19.69;87.92
42633;BME280;28261;53.304;-6.284;2022-07-23T10:36:04;100629.44;;;19.74;87.58
42633;BME280;28261;53.304;-6.284;2022-07-23T10:38:15;100626.78;;;19.82;87.53
42633;BME280;28261;53.304;-6.284;2022-07-23T10:40:23;100609.78;;;19.90;86.74
42633;BME280;28261;53.304;-6.284;2022-07-23T10:42:33;100608.63;;;19.92;86.47
42633;BME280;28261;53.304;-6.284;2022-07-23T10:44:39;100611.31;;;19.92;86.09
42633;BME280;28261;53.304;-6.284;2022-07-23T10:46:57;100603.25;;;19.92;85.73
42633;BME280;28261;53.304;-6.284;2022-07-23T10:49:26;100589.97;;;19.91;85.63